Nearby METAR Reports

 

KMGE - Dobbins Afb/Mari, Georgia, USA
Distance from station: SSW 6mi, 9km
Updated: Fri, 17-Nov-2017 3:56pm EST
Clear
Clear
 Wind from ESE
Wind: ESE 9 mph , 15 km/h
Temperature: 64°F , 18°C
Dew Point: 37°F , 3°C
Humidity: 37%
Barometer: 30.07 inHg , 1018.3 hPa
Clouds: Clear
Visibility: 10 miles , 16 km
2017/11/17 20:56 KMGE 172056Z AUTO 12008KT 10SM CLR 18/03 A3007 RMK AO2 SLP184 T01840031 57018 $
KRYY - Marietta Mccolum, Georgia, USA
Distance from station: WNW 6mi, 10km
Updated: Fri, 17-Nov-2017 3:48pm EST
Clear
Clear
 Wind from varies
Wind: varies 6 mph , 9 km/h
Temperature: 66°F , 19°C
Dew Point: 39°F , 4°C
Humidity: 37%
Barometer: 30.08 inHg , 1018.6 hPa
Clouds: Clear
Visibility: 10 miles , 16 km
2017/11/17 20:48 KRYY 172048Z VRB05KT 10SM CLR 19/04 A3008 RMK AO2 SLP909 T01890039 58020
 
KPDK - Peachtree/Dekalb, Georgia, USA
Distance from station: SE 13mi, 22km
Updated: Fri, 17-Nov-2017 3:53pm EST
Clear
Clear
 Wind from SSE
Wind: SSE 7 mph , 11 km/h
Temperature: 64°F , 18°C
Dew Point: 37°F , 3°C
Humidity: 37%
Barometer: 30.08 inHg , 1018.6 hPa
Clouds: Clear
Visibility: 10 miles , 16 km
2017/11/17 20:53 KPDK 172053Z 15006KT 10SM CLR 18/03 A3008 RMK AO2 SLP191 T01780033 57016
KFTY - Atlanta/Fulton, Georgia, USA
Distance from station: S 15mi, 24km
Updated: Fri, 17-Nov-2017 3:53pm EST
Clear
Clear
 Wind from SSE
Wind: SSE 9 mph , 15 km/h
Temperature: 66°F , 19°C
Dew Point: 41°F , 5°C
Humidity: 40%
Barometer: 30.08 inHg , 1018.6 hPa
Clouds: Clear
Visibility: 10 miles , 16 km
2017/11/17 20:53 KFTY 172053Z 16008KT 10SM CLR 19/05 A3008 RMK AO2 SLP185 T01890050 58017
 
KCNI - Canton/Cherokee, Georgia, USA
Distance from station: N 23mi, 36km
Updated: Fri, 17-Nov-2017 4:15pm EST
Clear
Clear
 Wind from SE
Wind: SE 7 mph , 11 km/h
Temperature: 64°F , 18°C
Dew Point: 37°F , 3°C
Humidity: 37%
Barometer: 30.09 inHg , 1019 hPa
Clouds: Clear
Visibility: 10 miles , 16 km
2017/11/17 21:15 KCNI 172115Z AUTO 14006KT 10SM CLR 18/03 A3009 RMK AO2
KVPC - Cartersville, Georgia, USA
Distance from station: WNW 23mi, 36km
Updated: Fri, 17-Nov-2017 3:53pm EST
Clear
Clear
 Wind from S
Wind: S 6 mph , 9 km/h
Temperature: 66°F , 19°C
Dew Point: 39°F , 4°C
Humidity: 37%
Barometer: 30.07 inHg , 1018.3 hPa
Clouds: Clear
Visibility: 10 miles , 16 km
2017/11/17 20:53 KVPC 172053Z AUTO 17005KT 10SM CLR 19/04 A3007 RMK AO2 SLP178 T01890039 58019
 
KATL - Atlanta, Georgia, USA
Distance from station: S 25mi, 40km
Updated: Fri, 17-Nov-2017 3:52pm EST
Mostly cloudy
Mostly cloudy
 Wind from ESE
Wind: ESE 7 mph , 11 km/h
Temperature: 64°F , 18°C
Dew Point: 43°F , 6°C
Humidity: 46%
Barometer: 30.09 inHg , 1019 hPa
Clouds: Mostly cloudy
Visibility: 10 miles , 16 km
Cloud details: Few Clouds 20000 ft
Partly cloudy 25000 ft
Mostly cloudy 30000 ft
2017/11/17 20:52 KATL 172052Z 12006KT 10SM FEW200 SCT250 BKN300 18/06 A3009 RMK AO2 SLP189 T01830061 57015
KPUJ - Atlanta/Paulding, Georgia, USA
Distance from station: WSW 26mi, 42km
Updated: Fri, 17-Nov-2017 4:15pm EST
Clear
Clear
 Wind from S
Wind: S 6 mph , 9 km/h
Temperature: 70°F , 21°C
Dew Point: 43°F , 6°C
Humidity: 38%
Barometer: 30.07 inHg , 1018.3 hPa
Clouds: Clear
Visibility: 10 miles , 16 km
2017/11/17 21:15 KPUJ 172115Z AUTO 17005KT 10SM CLR 21/06 A3007 RMK AO2
 
KLZU - Lawrenceville, Georgia, USA
Distance from station: E 30mi, 48km
Updated: Fri, 17-Nov-2017 3:56pm EST
Clear
Clear
 Wind from varies
Wind: varies 5 mph , 7 km/h
Temperature: 64°F , 18°C
Dew Point: 39°F , 4°C
Humidity: 40%
Barometer: 30.10 inHg , 1019.3 hPa
Clouds: Clear
Visibility: 10 miles , 16 km
2017/11/17 20:56 KLZU 172056Z VRB04KT 10SM CLR 18/04 A3010 RMK AO2 SLP193 T01780039 57016 $
KJZP - Jasper, Georgia, USA
Distance from station: N 32mi, 51km
Updated: Fri, 17-Nov-2017 4:15pm EST
Clear
Clear
 Wind from SE
Wind: SE 7 mph , 11 km/h
Temperature: 61°F , 16°C
Dew Point: 37°F , 3°C
Humidity: 42%
Barometer: 30.11 inHg , 1019.6 hPa
Clouds: Clear
Visibility: 10 miles , 16 km
2017/11/17 21:15 KJZP 172115Z AUTO 14006KT 10SM CLR 16/03 A3011 RMK AO2 T01610029 PNO
 
KCZL - Calhoun, Georgia, USA
Distance from station: NW 40mi, 65km
Updated: Fri, 17-Nov-2017 4:15pm EST
Clear
Clear
 Wind from S
Wind: S 8 mph , 13 km/h
Temperature: 68°F , 20°C
Dew Point: 36°F , 2°C
Humidity: 30%
Barometer: 30.07 inHg , 1018.3 hPa
Clouds: Clear
Visibility: 10 miles , 16 km
2017/11/17 21:15 KCZL 172115Z AUTO 17007KT 10SM CLR 20/02 A3007 RMK AO2 T02000019
KGVL - Gainesville, Georgia, USA
Distance from station: ENE 42mi, 68km
Updated: Fri, 17-Nov-2017 3:53pm EST
Clear
Clear
 Wind from SE
Wind: SE 3 mph , 6 km/h
Temperature: 63°F , 17°C
Dew Point: 36°F , 2°C
Humidity: 37%
Barometer: 30.11 inHg , 1019.6 hPa
Clouds: Clear
Visibility: 10 miles , 16 km
2017/11/17 20:53 KGVL 172053Z AUTO 14003KT 10SM CLR 17/02 A3011 RMK AO2 SLP192 T01720017 56019
 
KHMP - Hampton, Georgia, USA
Distance from station: SSE 43mi, 70km
Updated: Fri, 17-Nov-2017 4:15pm EST
Clear
Clear
 Wind from SSE
Wind: SSE 7 mph , 11 km/h
Temperature: 66°F , 19°C
Dew Point: 43°F , 6°C
Humidity: 43%
Barometer: 30.09 inHg , 1019 hPa
Clouds: Clear
Visibility: 10 miles , 16 km
2017/11/17 21:15 KHMP 172115Z AUTO 15006KT 10SM CLR 19/06 A3009 RMK AO2 T01890058
KCVC - Covington, Georgia, USA
Distance from station: ESE 45mi, 72km
Updated: Fri, 17-Nov-2017 4:15pm EST
Clear
Clear
 Wind from SE
Wind: SE 3 mph , 6 km/h
Temperature: 66°F , 19°C
Dew Point: 37°F , 3°C
Humidity: 35%
Barometer: 30.09 inHg , 1019 hPa
Clouds: Clear
Visibility: 10 miles , 16 km
2017/11/17 21:15 KCVC 172115Z AUTO 13003KT 10SM CLR 19/03 A3009 RMK AO2
 
KFFC - Peachtree City, Georgia, USA
Distance from station: S 45mi, 72km
Updated: Fri, 17-Nov-2017 3:53pm EST
Clear
Clear
 Wind from SE
Wind: SE 7 mph , 11 km/h
Temperature: 66°F , 19°C
Dew Point: 39°F , 4°C
Humidity: 37%
Barometer: 30.09 inHg , 1019 hPa
Clouds: Clear
Visibility: 10 miles , 16 km
2017/11/17 20:53 KFFC 172053Z AUTO 14006KT 10SM CLR 19/04 A3009 RMK AO2 SLP190 T01940044 56016
KCTJ - Carrollton/Gray, Georgia, USA
Distance from station: SW 45mi, 73km
Updated: Fri, 17-Nov-2017 4:15pm EST
Clear
Clear
 Wind from SE
Wind: SE 6 mph , 9 km/h
Temperature: 64°F , 18°C
Dew Point: 36°F , 2°C
Humidity: 34%
Barometer: 30.10 inHg , 1019.3 hPa
Clouds: Clear
Visibility: 10 miles , 16 km
2017/11/17 21:15 KCTJ 172115Z AUTO 14005KT 10SM CLR 18/02 A3010 RMK AO2 T01800024
 
KRMG - Rome, Georgia, USA
Distance from station: WNW 46mi, 74km
Updated: Fri, 17-Nov-2017 3:53pm EST
Clear
Clear
 Wind from S
Wind: S 5 mph , 7 km/h
Temperature: 68°F , 20°C
Dew Point: 37°F , 3°C
Humidity: 33%
Barometer: 30.05 inHg , 1017.6 hPa
Clouds: Clear
Visibility: 10 miles , 16 km
2017/11/17 20:53 KRMG 172053Z AUTO 17004KT 10SM CLR 20/03 A3005 RMK AO2 SLP174 T02000033 56024
KWDR - Winder/Barrow, Georgia, USA
Distance from station: E 47mi, 76km
Updated: Fri, 17-Nov-2017 4:15pm EST
Clear
Clear
 Wind from SSE
Wind: SSE 3 mph , 6 km/h
Temperature: 63°F , 17°C
Dew Point: 37°F , 3°C
Humidity: 39%
Barometer: 30.12 inHg , 1020 hPa
Clouds: Clear
Visibility: 10 miles , 16 km
2017/11/17 21:15 KWDR 172115Z AUTO 15003KT 10SM CLR 17/03 A3012 RMK AO1
 
KCCO - Newnan, Georgia, USA
Distance from station: SSW 49mi, 80km
Updated: Fri, 17-Nov-2017 4:15pm EST
Clear
Clear
 Wind from SSE
Wind: SSE 6 mph , 9 km/h
Temperature: 68°F , 20°C
Dew Point: 34°F , 1°C
Humidity: 28%
Barometer: 30.08 inHg , 1018.6 hPa
Clouds: Clear
Visibility: 10 miles , 16 km
2017/11/17 21:15 KCCO 172115Z AUTO 15005KT 10SM CLR 20/01 A3008 RMK AO2 T01960012